sensor_id;sensor_type;location;lat;lon;timestamp;P1;P2;P0
47079;PMS5003;33067;49.296;14.470;2022-07-26T00:02:18;20;20;
47079;PMS5003;33067;49.296;14.470;2022-07-26T00:04:43;16;16;
47079;PMS5003;33067;49.296;14.470;2022-07-26T00:07:09;18;18;
47079;PMS5003;33067;49.296;14.470;2022-07-26T00:09:34;18;17;
47079;PMS5003;33067;49.296;14.470;2022-07-26T00:12:00;21;20;
47079;PMS5003;33067;49.296;14.470;2022-07-26T00:14:25;16;16;
47079;PMS5003;33067;49.296;14.470;2022-07-26T00:16:51;17;14;
47079;PMS5003;33067;49.296;14.470;2022-07-26T00:19:16;18;15;
47079;PMS5003;33067;49.296;14.470;2022-07-26T00:21:42;22;19;
47079;PMS5003;33067;49.296;14.470;2022-07-26T00:24:08;14;14;
47079;PMS5003;33067;49.296;14.470;2022-07-26T00:26:33;17;15;
47079;PMS5003;33067;49.296;14.470;2022-07-26T00:28:59;16;16;
47079;PMS5003;33067;49.296;14.470;2022-07-26T00:31:24;15;14;
47079;PMS5003;33067;49.296;14.470;2022-07-26T00:33:50;12;12;
47079;PMS5003;33067;49.296;14.470;2022-07-26T00:36:15;16;13;
47079;PMS5003;33067;49.296;14.470;2022-07-26T00:38:41;15;14;
47079;PMS5003;33067;49.296;14.470;2022-07-26T00:41:07;15;15;
47079;PMS5003;33067;49.296;14.470;2022-07-26T00:43:32;13;13;
47079;PMS5003;33067;49.296;14.470;2022-07-26T00:45:58;13;12;
47079;PMS5003;33067;49.296;14.470;2022-07-26T00:48:24;12;12;
47079;PMS5003;33067;49.296;14.470;2022-07-26T00:50:51;11;11;
47079;PMS5003;33067;49.296;14.470;2022-07-26T00:53:18;10;10;
47079;PMS5003;33067;49.296;14.470;2022-07-26T00:55:40;14;14;
47079;PMS5003;33067;49.296;14.470;2022-07-26T00:58:06;15;14;
47079;PMS5003;33067;49.296;14.470;2022-07-26T01:00:32;17;15;
47079;PMS5003;33067;49.296;14.470;2022-07-26T01:02:57;14;12;
47079;PMS5003;33067;49.296;14.470;2022-07-26T01:05:23;14;13;
47079;PMS5003;33067;49.296;14.470;2022-07-26T01:07:49;14;14;
47079;PMS5003;33067;49.296;14.470;2022-07-26T01:10:14;16;16;
47079;PMS5003;33067;49.296;14.470;2022-07-26T01:12:40;15;14;
47079;PMS5003;33067;49.296;14.470;2022-07-26T01:15:06;16;15;
47079;PMS5003;33067;49.296;14.470;2022-07-26T01:17:31;13;13;
47079;PMS5003;33067;49.296;14.470;2022-07-26T01:19:57;16;16;
47079;PMS5003;33067;49.296;14.470;2022-07-26T01:22:22;18;16;
47079;PMS5003;33067;49.296;14.470;2022-07-26T01:24:48;15;15;
47079;PMS5003;33067;49.296;14.470;2022-07-26T01:27:13;16;15;
47079;PMS5003;33067;49.296;14.470;2022-07-26T01:29:38;18;18;
47079;PMS5003;33067;49.296;14.470;2022-07-26T01:32:04;18;18;
47079;PMS5003;33067;49.296;14.470;2022-07-26T01:34:29;22;22;
47079;PMS5003;33067;49.296;14.470;2022-07-26T01:36:54;17;17;
47079;PMS5003;33067;49.296;14.470;2022-07-26T01:39:20;16;16;
47079;PMS5003;33067;49.296;14.470;2022-07-26T01:41:45;17;16;
47079;PMS5003;33067;49.296;14.470;2022-07-26T01:44:11;17;16;
47079;PMS5003;33067;49.296;14.470;2022-07-26T01:46:36;16;16;
47079;PMS5003;33067;49.296;14.470;2022-07-26T01:49:02;16;15;
47079;PMS5003;33067;49.296;14.470;2022-07-26T01:51:27;20;19;
47079;PMS5003;33067;49.296;14.470;2022-07-26T01:53:53;20;17;
47079;PMS5003;33067;49.296;14.470;2022-07-26T01:56:18;18;18;
47079;PMS5003;33067;49.296;14.470;2022-07-26T01:58:44;17;16;
47079;PMS5003;33067;49.296;14.470;2022-07-26T02:01:10;18;17;
47079;PMS5003;33067;49.296;14.470;2022-07-26T02:03:35;17;16;
47079;PMS5003;33067;49.296;14.470;2022-07-26T02:06:01;15;13;
47079;PMS5003;33067;49.296;14.470;2022-07-26T02:08:27;13;13;
47079;PMS5003;33067;49.296;14.470;2022-07-26T02:12:59;15;15;
47079;PMS5003;33067;49.296;14.470;2022-07-26T02:15:25;16;15;
47079;PMS5003;33067;49.296;14.470;2022-07-26T02:17:51;17;16;
47079;PMS5003;33067;49.296;14.470;2022-07-26T02:20:17;16;16;
47079;PMS5003;33067;49.296;14.470;2022-07-26T02:22:42;15;15;
47079;PMS5003;33067;49.296;14.470;2022-07-26T02:25:08;13;13;
47079;PMS5003;33067;49.296;14.470;2022-07-26T02:27:34;17;17;
47079;PMS5003;33067;49.296;14.470;2022-07-26T02:29:59;15;15;
47079;PMS5003;33067;49.296;14.470;2022-07-26T02:32:24;16;16;
47079;PMS5003;33067;49.296;14.470;2022-07-26T02:34:50;15;15;
47079;PMS5003;33067;49.296;14.470;2022-07-26T02:37:16;18;15;
47079;PMS5003;33067;49.296;14.470;2022-07-26T02:39:41;15;15;
47079;PMS5003;33067;49.296;14.470;2022-07-26T02:42:07;16;13;
47079;PMS5003;33067;49.296;14.470;2022-07-26T02:44:33;15;14;
47079;PMS5003;33067;49.296;14.470;2022-07-26T02:46:58;17;17;
47079;PMS5003;33067;49.296;14.470;2022-07-26T02:49:24;18;18;
47079;PMS5003;33067;49.296;14.470;2022-07-26T02:51:50;18;16;
47079;PMS5003;33067;49.296;14.470;2022-07-26T02:54:15;18;18;
47079;PMS5003;33067;49.296;14.470;2022-07-26T02:56:41;16;16;
47079;PMS5003;33067;49.296;14.470;2022-07-26T02:59:06;16;16;
47079;PMS5003;33067;49.296;14.470;2022-07-26T03:01:32;17;17;
47079;PMS5003;33067;49.296;14.470;2022-07-26T03:03:57;19;16;
47079;PMS5003;33067;49.296;14.470;2022-07-26T03:06:23;14;14;
47079;PMS5003;33067;49.296;14.470;2022-07-26T03:08:48;16;16;
47079;PMS5003;33067;49.296;14.470;2022-07-26T03:11:16;20;17;
47079;PMS5003;33067;49.296;14.470;2022-07-26T03:13:41;22;19;
47079;PMS5003;33067;49.296;14.470;2022-07-26T03:16:16;18;18;
47079;PMS5003;33067;49.296;14.470;2022-07-26T03:18:31;17;17;
47079;PMS5003;33067;49.296;14.470;2022-07-26T03:20:56;15;15;
47079;PMS5003;33067;49.296;14.470;2022-07-26T03:23:22;19;17;
47079;PMS5003;33067;49.296;14.470;2022-07-26T03:25:47;18;16;
47079;PMS5003;33067;49.296;14.470;2022-07-26T03:28:13;17;16;
47079;PMS5003;33067;49.296;14.470;2022-07-26T03:30:38;18;18;
47079;PMS5003;33067;49.296;14.470;2022-07-26T03:33:04;39;37;
47079;PMS5003;33067;49.296;14.470;2022-07-26T03:35:30;18;18;
47079;PMS5003;33067;49.296;14.470;2022-07-26T03:37:55;20;18;
47079;PMS5003;33067;49.296;14.470;2022-07-26T03:40:21;20;18;
47079;PMS5003;33067;49.296;14.470;2022-07-26T03:42:46;17;17;
47079;PMS5003;33067;49.296;14.470;2022-07-26T03:45:13;22;19;
47079;PMS5003;33067;49.296;14.470;2022-07-26T03:47:38;18;18;
47079;PMS5003;33067;49.296;14.470;2022-07-26T03:50:03;20;18;
47079;PMS5003;33067;49.296;14.470;2022-07-26T03:52:29;18;18;
47079;PMS5003;33067;49.296;14.470;2022-07-26T03:54:55;18;18;
47079;PMS5003;33067;49.296;14.470;2022-07-26T03:57:20;22;22;
47079;PMS5003;33067;49.296;14.470;2022-07-26T03:59:46;37;37;
47079;PMS5003;33067;49.296;14.470;2022-07-26T04:02:11;19;19;
47079;PMS5003;33067;49.296;14.470;2022-07-26T04:04:37;26;23;
47079;PMS5003;33067;49.296;14.470;2022-07-26T04:07:02;25;23;
47079;PMS5003;33067;49.296;14.470;2022-07-26T04:09:28;22;21;
47079;PMS5003;33067;49.296;14.470;2022-07-26T04:11:53;24;23;
47079;PMS5003;33067;49.296;14.470;2022-07-26T04:14:19;27;26;
47079;PMS5003;33067;49.296;14.470;2022-07-26T04:16:44;56;56;
47079;PMS5003;33067;49.296;14.470;2022-07-26T04:19:10;25;24;
47079;PMS5003;33067;49.296;14.470;2022-07-26T04:21:35;20;20;
47079;PMS5003;33067;49.296;14.470;2022-07-26T04:24:00;47;47;
47079;PMS5003;33067;49.296;14.470;2022-07-26T04:26:26;51;51;
47079;PMS5003;33067;49.296;14.470;2022-07-26T04:28:51;50;47;
47079;PMS5003;33067;49.296;14.470;2022-07-26T04:31:16;33;33;
47079;PMS5003;33067;49.296;14.470;2022-07-26T04:33:42;50;49;
47079;PMS5003;33067;49.296;14.470;2022-07-26T04:36:07;39;38;
47079;PMS5003;33067;49.296;14.470;2022-07-26T04:38:33;19;19;
47079;PMS5003;33067;49.296;14.470;2022-07-26T04:40:59;22;22;
47079;PMS5003;33067;49.296;14.470;2022-07-26T04:43:25;19;18;
47079;PMS5003;33067;49.296;14.470;2022-07-26T04:45:50;21;21;
47079;PMS5003;33067;49.296;14.470;2022-07-26T04:48:16;47;46;
47079;PMS5003;33067;49.296;14.470;2022-07-26T04:50:42;21;20;
47079;PMS5003;33067;49.296;14.470;2022-07-26T04:53:08;42;41;
47079;PMS5003;33067;49.296;14.470;2022-07-26T04:55:32;22;21;
47079;PMS5003;33067;49.296;14.470;2022-07-26T04:57:57;22;20;
47079;PMS5003;33067;49.296;14.470;2022-07-26T05:00:23;35;33;
47079;PMS5003;33067;49.296;14.470;2022-07-26T05:02:49;27;24;
47079;PMS5003;33067;49.296;14.470;2022-07-26T05:05:14;33;32;
47079;PMS5003;33067;49.296;14.470;2022-07-26T05:07:40;27;27;
47079;PMS5003;33067;49.296;14.470;2022-07-26T05:10:06;34;34;
47079;PMS5003;33067;49.296;14.470;2022-07-26T05:12:32;59;57;
47079;PMS5003;33067;49.296;14.470;2022-07-26T05:14:57;39;39;
47079;PMS5003;33067;49.296;14.470;2022-07-26T05:17:22;44;43;
47079;PMS5003;33067;49.296;14.470;2022-07-26T05:19:47;60;59;
47079;PMS5003;33067;49.296;14.470;2022-07-26T05:22:13;47;47;
47079;PMS5003;33067;49.296;14.470;2022-07-26T05:24:38;48;46;
47079;PMS5003;33067;49.296;14.470;2022-07-26T05:27:03;64;60;
47079;PMS5003;33067;49.296;14.470;2022-07-26T05:29:33;51;49;
47079;PMS5003;33067;49.296;14.470;2022-07-26T05:31:54;58;56;
47079;PMS5003;33067;49.296;14.470;2022-07-26T05:34:19;51;50;
47079;PMS5003;33067;49.296;14.470;2022-07-26T05:36:44;73;73;
47079;PMS5003;33067;49.296;14.470;2022-07-26T05:39:10;52;52;
47079;PMS5003;33067;49.296;14.470;2022-07-26T05:41:35;60;59;
47079;PMS5003;33067;49.296;14.470;2022-07-26T05:44:04;56;55;
47079;PMS5003;33067;49.296;14.470;2022-07-26T05:46:27;48;48;
47079;PMS5003;33067;49.296;14.470;2022-07-26T05:48:52;49;49;
47079;PMS5003;33067;49.296;14.470;2022-07-26T05:51:18;55;55;
47079;PMS5003;33067;49.296;14.470;2022-07-26T05:53:45;44;44;
47079;PMS5003;33067;49.296;14.470;2022-07-26T05:56:15;52;51;
47079;PMS5003;33067;49.296;14.470;2022-07-26T05:58:42;59;59;
47079;PMS5003;33067;49.296;14.470;2022-07-26T06:01:00;54;54;
47079;PMS5003;33067;49.296;14.470;2022-07-26T06:03:30;42;40;
47079;PMS5003;33067;49.296;14.470;2022-07-26T06:05:56;48;47;
47079;PMS5003;33067;49.296;14.470;2022-07-26T06:08:16;53;52;
47079;PMS5003;33067;49.296;14.470;2022-07-26T06:10:56;71;71;
47079;PMS5003;33067;49.296;14.470;2022-07-26T06:13:11;49;49;
47079;PMS5003;33067;49.296;14.470;2022-07-26T06:15:32;47;45;
47079;PMS5003;33067;49.296;14.470;2022-07-26T06:17:58;43;41;
47079;PMS5003;33067;49.296;14.470;2022-07-26T06:20:23;46;44;
47079;PMS5003;33067;49.296;14.470;2022-07-26T06:22:49;17;17;
47079;PMS5003;33067;49.296;14.470;2022-07-26T06:25:15;33;33;
47079;PMS5003;33067;49.296;14.470;2022-07-26T06:27:40;40;39;
47079;PMS5003;33067;49.296;14.470;2022-07-26T06:30:11;25;25;
47079;PMS5003;33067;49.296;14.470;2022-07-26T06:32:33;67;66;
47079;PMS5003;33067;49.296;14.470;2022-07-26T06:35:00;51;51;
47079;PMS5003;33067;49.296;14.470;2022-07-26T06:37:25;30;29;
47079;PMS5003;33067;49.296;14.470;2022-07-26T06:39:55;48;48;
47079;PMS5003;33067;49.296;14.470;2022-07-26T06:42:13;43;42;
47079;PMS5003;33067;49.296;14.470;2022-07-26T06:44:38;55;55;
47079;PMS5003;33067;49.296;14.470;2022-07-26T06:47:04;40;39;
47079;PMS5003;33067;49.296;14.470;2022-07-26T06:49:29;27;27;
47079;PMS5003;33067;49.296;14.470;2022-07-26T06:51:55;51;48;
47079;PMS5003;33067;49.296;14.470;2022-07-26T06:54:20;50;49;
47079;PMS5003;33067;49.296;14.470;2022-07-26T06:56:46;65;64;
47079;PMS5003;33067;49.296;14.470;2022-07-26T06:59:12;51;49;
47079;PMS5003;33067;49.296;14.470;2022-07-26T07:01:37;32;30;
47079;PMS5003;33067;49.296;14.470;2022-07-26T07:04:03;34;33;
47079;PMS5003;33067;49.296;14.470;2022-07-26T07:06:28;34;34;
47079;PMS5003;33067;49.296;14.470;2022-07-26T07:08:54;50;50;
47079;PMS5003;33067;49.296;14.470;2022-07-26T07:11:24;41;41;
47079;PMS5003;33067;49.296;14.470;2022-07-26T07:13:45;31;26;
47079;PMS5003;33067;49.296;14.470;2022-07-26T07:16:11;37;37;
47079;PMS5003;33067;49.296;14.470;2022-07-26T07:18:39;42;40;
47079;PMS5003;33067;49.296;14.470;2022-07-26T07:21:03;49;49;
47079;PMS5003;33067;49.296;14.470;2022-07-26T07:23:27;34;31;
47079;PMS5003;33067;49.296;14.470;2022-07-26T07:25:53;23;23;
47079;PMS5003;33067;49.296;14.470;2022-07-26T07:28:18;25;25;
47079;PMS5003;33067;49.296;14.470;2022-07-26T07:30:44;90;89;
47079;PMS5003;33067;49.296;14.470;2022-07-26T07:33:10;23;20;
47079;PMS5003;33067;49.296;14.470;2022-07-26T07:35:35;37;37;
47079;PMS5003;33067;49.296;14.470;2022-07-26T07:38:01;33;30;
47079;PMS5003;33067;49.296;14.470;2022-07-26T07:40:26;44;43;
47079;PMS5003;33067;49.296;14.470;2022-07-26T07:42:51;51;49;
47079;PMS5003;33067;49.296;14.470;2022-07-26T07:45:17;20;20;
47079;PMS5003;33067;49.296;14.470;2022-07-26T07:47:42;42;42;
47079;PMS5003;33067;49.296;14.470;2022-07-26T07:50:08;46;46;
47079;PMS5003;33067;49.296;14.470;2022-07-26T07:52:37;20;20;
47079;PMS5003;33067;49.296;14.470;2022-07-26T07:54:58;43;43;
47079;PMS5003;33067;49.296;14.470;2022-07-26T07:57:24;28;28;
47079;PMS5003;33067;49.296;14.470;2022-07-26T07:59:50;80;80;
47079;PMS5003;33067;49.296;14.470;2022-07-26T08:02:15;88;87;
47079;PMS5003;33067;49.296;14.470;2022-07-26T08:04:41;37;37;
47079;PMS5003;33067;49.296;14.470;2022-07-26T08:07:06;44;43;
47079;PMS5003;33067;49.296;14.470;2022-07-26T08:09:32;25;24;
47079;PMS5003;33067;49.296;14.470;2022-07-26T08:11:58;25;24;
47079;PMS5003;33067;49.296;14.470;2022-07-26T08:14:23;27;26;
47079;PMS5003;33067;49.296;14.470;2022-07-26T08:16:48;21;21;
47079;PMS5003;33067;49.296;14.470;2022-07-26T08:19:13;61;60;
47079;PMS5003;33067;49.296;14.470;2022-07-26T08:21:39;26;24;
47079;PMS5003;33067;49.296;14.470;2022-07-26T08:24:04;29;26;
47079;PMS5003;33067;49.296;14.470;2022-07-26T08:26:37;23;20;
47079;PMS5003;33067;49.296;14.470;2022-07-26T08:28:55;23;21;
47079;PMS5003;33067;49.296;14.470;2022-07-26T08:31:24;29;29;
47079;PMS5003;33067;49.296;14.470;2022-07-26T08:33:48;31;31;
47079;PMS5003;33067;49.296;14.470;2022-07-26T08:36:19;19;17;
47079;PMS5003;33067;49.296;14.470;2022-07-26T08:38:39;22;22;
47079;PMS5003;33067;49.296;14.470;2022-07-26T08:41:03;19;17;
47079;PMS5003;33067;49.296;14.470;2022-07-26T08:43:30;19;18;
47079;PMS5003;33067;49.296;14.470;2022-07-26T08:48:24;16;16;
47079;PMS5003;33067;49.296;14.470;2022-07-26T08:50:49;19;18;
47079;PMS5003;33067;49.296;14.470;2022-07-26T08:55:36;18;18;
47079;PMS5003;33067;49.296;14.470;2022-07-26T08:58:02;18;18;
47079;PMS5003;33067;49.296;14.470;2022-07-26T09:00:28;16;16;
47079;PMS5003;33067;49.296;14.470;2022-07-26T09:02:53;16;15;
47079;PMS5003;33067;49.296;14.470;2022-07-26T09:05:18;15;15;
47079;PMS5003;33067;49.296;14.470;2022-07-26T09:07:43;17;17;
47079;PMS5003;33067;49.296;14.470;2022-07-26T09:10:11;24;24;
47079;PMS5003;33067;49.296;14.470;2022-07-26T09:12:35;34;34;
47079;PMS5003;33067;49.296;14.470;2022-07-26T09:15:00;24;22;
47079;PMS5003;33067;49.296;14.470;2022-07-26T09:22:19;23;22;
47079;PMS5003;33067;49.296;14.470;2022-07-26T09:24:44;27;25;
47079;PMS5003;33067;49.296;14.470;2022-07-26T09:27:10;22;22;
47079;PMS5003;33067;49.296;14.470;2022-07-26T09:34:24;22;21;
47079;PMS5003;33067;49.296;14.470;2022-07-26T09:36:49;18;18;
47079;PMS5003;33067;49.296;14.470;2022-07-26T09:39:14;18;18;
47079;PMS5003;33067;49.296;14.470;2022-07-26T09:41:40;16;16;
47079;PMS5003;33067;49.296;14.470;2022-07-26T09:44:06;17;17;
47079;PMS5003;33067;49.296;14.470;2022-07-26T09:46:31;16;16;
47079;PMS5003;33067;49.296;14.470;2022-07-26T09:48:57;16;16;
47079;PMS5003;33067;49.296;14.470;2022-07-26T09:53:48;18;17;
47079;PMS5003;33067;49.296;14.470;2022-07-26T09:56:14;18;17;
47079;PMS5003;33067;49.296;14.470;2022-07-26T09:58:39;15;13;
47079;PMS5003;33067;49.296;14.470;2022-07-26T10:01:10;19;16;
47079;PMS5003;33067;49.296;14.470;2022-07-26T10:03:41;19;18;
47079;PMS5003;33067;49.296;14.470;2022-07-26T10:06:03;15;14;
47079;PMS5003;33067;49.296;14.470;2022-07-26T10:08:25;19;17;
47079;PMS5003;33067;49.296;14.470;2022-07-26T10:13:14;17;16;
47079;PMS5003;33067;49.296;14.470;2022-07-26T10:15:40;17;16;
47079;PMS5003;33067;49.296;14.470;2022-07-26T10:18:06;18;18;
47079;PMS5003;33067;49.296;14.470;2022-07-26T10:20:39;17;17;
47079;PMS5003;33067;49.296;14.470;2022-07-26T10:22:56;18;18;
47079;PMS5003;33067;49.296;14.470;2022-07-26T10:27:47;17;16;
47079;PMS5003;33067;49.296;14.470;2022-07-26T10:30:20;77;75;
47079;PMS5003;33067;49.296;14.470;2022-07-26T10:32:37;42;41;
47079;PMS5003;33067;49.296;14.470;2022-07-26T10:37:28;13;13;
47079;PMS5003;33067;49.296;14.470;2022-07-26T10:42:19;12;12;
47079;PMS5003;33067;49.296;14.470;2022-07-26T10:44:45;18;18;
47079;PMS5003;33067;49.296;14.470;2022-07-26T10:47:12;14;14;
47079;PMS5003;33067;49.296;14.470;2022-07-26T10:49:37;13;13;
47079;PMS5003;33067;49.296;14.470;2022-07-26T10:54:29;15;15;
47079;PMS5003;33067;49.296;14.470;2022-07-26T10:56:53;17;17;
47079;PMS5003;33067;49.296;14.470;2022-07-26T11:01:43;16;15;
47079;PMS5003;33067;49.296;14.470;2022-07-26T11:06:34;18;18;
47079;PMS5003;33067;49.296;14.470;2022-07-26T11:11:29;17;17;
47079;PMS5003;33067;49.296;14.470;2022-07-26T11:13:52;15;15;
47079;PMS5003;33067;49.296;14.470;2022-07-26T11:16:17;15;14;
47079;PMS5003;33067;49.296;14.470;2022-07-26T11:18:43;20;19;
47079;PMS5003;33067;49.296;14.470;2022-07-26T11:21:10;13;13;
47079;PMS5003;33067;49.296;14.470;2022-07-26T11:23:34;14;14;
47079;PMS5003;33067;49.296;14.470;2022-07-26T11:26:08;17;16;
47079;PMS5003;33067;49.296;14.470;2022-07-26T11:30:58;13;13;
47079;PMS5003;33067;49.296;14.470;2022-07-26T11:33:17;11;11;
47079;PMS5003;33067;49.296;14.470;2022-07-26T11:38:08;10;10;
47079;PMS5003;33067;49.296;14.470;2022-07-26T11:42:59;11;11;
47079;PMS5003;33067;49.296;14.470;2022-07-26T11:45:25;11;11;
47079;PMS5003;33067;49.296;14.470;2022-07-26T11:47:50;14;13;
47079;PMS5003;33067;49.296;14.470;2022-07-26T11:50:18;8;8;
47079;PMS5003;33067;49.296;14.470;2022-07-26T11:52:42;9;9;
47079;PMS5003;33067;49.296;14.470;2022-07-26T11:55:08;7;7;
47079;PMS5003;33067;49.296;14.470;2022-07-26T11:57:33;8;8;
47079;PMS5003;33067;49.296;14.470;2022-07-26T12:00:02;6;6;
47079;PMS5003;33067;49.296;14.470;2022-07-26T12:02:31;7;7;
47079;PMS5003;33067;49.296;14.470;2022-07-26T12:05:10;6;6;
47079;PMS5003;33067;49.296;14.470;2022-07-26T12:07:19;6;6;
47079;PMS5003;33067;49.296;14.470;2022-07-26T12:09:46;6;6;
47079;PMS5003;33067;49.296;14.470;2022-07-26T12:12:08;4;4;
47079;PMS5003;33067;49.296;14.470;2022-07-26T12:14:33;6;6;
47079;PMS5003;33067;49.296;14.470;2022-07-26T12:19:27;6;6;
47079;PMS5003;33067;49.296;14.470;2022-07-26T12:21:51;4;4;
47079;PMS5003;33067;49.296;14.470;2022-07-26T12:26:41;8;8;
47079;PMS5003;33067;49.296;14.470;2022-07-26T12:29:08;6;5;
47079;PMS5003;33067;49.296;14.470;2022-07-26T12:31:35;7;7;
47079;PMS5003;33067;49.296;14.470;2022-07-26T12:33:58;6;6;
47079;PMS5003;33067;49.296;14.470;2022-07-26T12:36:24;5;5;
47079;PMS5003;33067;49.296;14.470;2022-07-26T12:38:50;5;3;
47079;PMS5003;33067;49.296;14.470;2022-07-26T12:43:41;6;6;
47079;PMS5003;33067;49.296;14.470;2022-07-26T12:46:07;7;6;
47079;PMS5003;33067;49.296;14.470;2022-07-26T12:48:32;6;6;
47079;PMS5003;33067;49.296;14.470;2022-07-26T12:51:00;5;4;
47079;PMS5003;33067;49.296;14.470;2022-07-26T12:53:28;7;7;
47079;PMS5003;33067;49.296;14.470;2022-07-26T12:56:01;4;4;
47079;PMS5003;33067;49.296;14.470;2022-07-26T12:58:15;4;4;
47079;PMS5003;33067;49.296;14.470;2022-07-26T13:00:41;3;3;
47079;PMS5003;33067;49.296;14.470;2022-07-26T13:03:06;5;5;
47079;PMS5003;33067;49.296;14.470;2022-07-26T13:05:32;6;6;
47079;PMS5003;33067;49.296;14.470;2022-07-26T13:07:57;5;5;
47079;PMS5003;33067;49.296;14.470;2022-07-26T13:10:23;5;5;
47079;PMS5003;33067;49.296;14.470;2022-07-26T13:12:49;5;5;
47079;PMS5003;33067;49.296;14.470;2022-07-26T13:15:15;7;7;
47079;PMS5003;33067;49.296;14.470;2022-07-26T13:17:40;8;8;
47079;PMS5003;33067;49.296;14.470;2022-07-26T13:20:06;8;7;
47079;PMS5003;33067;49.296;14.470;2022-07-26T13:22:31;9;8;
47079;PMS5003;33067;49.296;14.470;2022-07-26T13:24:57;6;6;
47079;PMS5003;33067;49.296;14.470;2022-07-26T13:27:23;6;6;
47079;PMS5003;33067;49.296;14.470;2022-07-26T13:29:49;5;5;
47079;PMS5003;33067;49.296;14.470;2022-07-26T13:32:14;5;5;
47079;PMS5003;33067;49.296;14.470;2022-07-26T13:34:40;7;7;
47079;PMS5003;33067;49.296;14.470;2022-07-26T13:37:10;8;8;
47079;PMS5003;33067;49.296;14.470;2022-07-26T13:39:31;9;7;
47079;PMS5003;33067;49.296;14.470;2022-07-26T13:41:57;4;4;
47079;PMS5003;33067;49.296;14.470;2022-07-26T13:44:27;4;4;
47079;PMS5003;33067;49.296;14.470;2022-07-26T13:46:50;5;5;
47079;PMS5003;33067;49.296;14.470;2022-07-26T13:49:14;5;5;
47079;PMS5003;33067;49.296;14.470;2022-07-26T13:51:40;6;6;
47079;PMS5003;33067;49.296;14.470;2022-07-26T13:54:05;8;5;
47079;PMS5003;33067;49.296;14.470;2022-07-26T13:56:33;4;4;
47079;PMS5003;33067;49.296;14.470;2022-07-26T13:58:58;4;4;
47079;PMS5003;33067;49.296;14.470;2022-07-26T14:01:22;33;33;
47079;PMS5003;33067;49.296;14.470;2022-07-26T14:03:48;15;14;
47079;PMS5003;33067;49.296;14.470;2022-07-26T14:06:13;8;8;
47079;PMS5003;33067;49.296;14.470;2022-07-26T14:08:39;8;8;
47079;PMS5003;33067;49.296;14.470;2022-07-26T14:11:05;21;21;
47079;PMS5003;33067;49.296;14.470;2022-07-26T14:13:31;23;23;
47079;PMS5003;33067;49.296;14.470;2022-07-26T14:16:00;14;13;
47079;PMS5003;33067;49.296;14.470;2022-07-26T14:18:23;8;6;
47079;PMS5003;33067;49.296;14.470;2022-07-26T14:20:48;5;5;
47079;PMS5003;33067;49.296;14.470;2022-07-26T14:23:14;6;6;
47079;PMS5003;33067;49.296;14.470;2022-07-26T14:25:39;5;5;
47079;PMS5003;33067;49.296;14.470;2022-07-26T14:28:05;3;3;
47079;PMS5003;33067;49.296;14.470;2022-07-26T14:30:31;6;6;
47079;PMS5003;33067;49.296;14.470;2022-07-26T14:32:58;6;6;
47079;PMS5003;33067;49.296;14.470;2022-07-26T14:35:22;5;5;
47079;PMS5003;33067;49.296;14.470;2022-07-26T14:37:47;6;6;
47079;PMS5003;33067;49.296;14.470;2022-07-26T14:40:14;7;7;
47079;PMS5003;33067;49.296;14.470;2022-07-26T14:42:39;5;5;
47079;PMS5003;33067;49.296;14.470;2022-07-26T14:45:05;5;5;
47079;PMS5003;33067;49.296;14.470;2022-07-26T14:47:30;5;5;
47079;PMS5003;33067;49.296;14.470;2022-07-26T14:49:55;4;4;
47079;PMS5003;33067;49.296;14.470;2022-07-26T14:52:21;6;6;
47079;PMS5003;33067;49.296;14.470;2022-07-26T14:54:47;6;6;
47079;PMS5003;33067;49.296;14.470;2022-07-26T14:57:12;5;5;
47079;PMS5003;33067;49.296;14.470;2022-07-26T14:59:38;4;4;
47079;PMS5003;33067;49.296;14.470;2022-07-26T15:02:03;5;5;
47079;PMS5003;33067;49.296;14.470;2022-07-26T15:04:29;5;4;
47079;PMS5003;33067;49.296;14.470;2022-07-26T15:06:55;6;5;
47079;PMS5003;33067;49.296;14.470;2022-07-26T15:09:20;6;5;
47079;PMS5003;33067;49.296;14.470;2022-07-26T15:11:51;5;5;
47079;PMS5003;33067;49.296;14.470;2022-07-26T15:14:12;6;6;
47079;PMS5003;33067;49.296;14.470;2022-07-26T15:16:39;5;5;
47079;PMS5003;33067;49.296;14.470;2022-07-26T15:19:03;4;4;
47079;PMS5003;33067;49.296;14.470;2022-07-26T15:21:29;7;5;
47079;PMS5003;33067;49.296;14.470;2022-07-26T15:23:54;4;4;
47079;PMS5003;33067;49.296;14.470;2022-07-26T15:26:20;5;3;
47079;PMS5003;33067;49.296;14.470;2022-07-26T15:28:46;5;5;
47079;PMS5003;33067;49.296;14.470;2022-07-26T15:31:11;4;4;
47079;PMS5003;33067;49.296;14.470;2022-07-26T15:33:37;5;5;
47079;PMS5003;33067;49.296;14.470;2022-07-26T15:36:03;5;5;
47079;PMS5003;33067;49.296;14.470;2022-07-26T15:38:28;5;5;
47079;PMS5003;33067;49.296;14.470;2022-07-26T15:40:54;6;5;
47079;PMS5003;33067;49.296;14.470;2022-07-26T15:43:20;4;4;
47079;PMS5003;33067;49.296;14.470;2022-07-26T15:45:45;5;5;
47079;PMS5003;33067;49.296;14.470;2022-07-26T15:48:11;4;4;
47079;PMS5003;33067;49.296;14.470;2022-07-26T15:50:36;5;5;
47079;PMS5003;33067;49.296;14.470;2022-07-26T15:53:02;5;5;
47079;PMS5003;33067;49.296;14.470;2022-07-26T15:55:28;6;6;
47079;PMS5003;33067;49.296;14.470;2022-07-26T15:57:53;7;7;
47079;PMS5003;33067;49.296;14.470;2022-07-26T16:00:19;8;7;
47079;PMS5003;33067;49.296;14.470;2022-07-26T16:02:45;6;6;
47079;PMS5003;33067;49.296;14.470;2022-07-26T16:05:10;5;5;
47079;PMS5003;33067;49.296;14.470;2022-07-26T16:07:36;9;8;
47079;PMS5003;33067;49.296;14.470;2022-07-26T16:10:02;5;5;
47079;PMS5003;33067;49.296;14.470;2022-07-26T16:12:27;5;5;
47079;PMS5003;33067;49.296;14.470;2022-07-26T16:14:53;5;5;
47079;PMS5003;33067;49.296;14.470;2022-07-26T16:17:19;5;5;
47079;PMS5003;33067;49.296;14.470;2022-07-26T16:19:44;4;4;
47079;PMS5003;33067;49.296;14.470;2022-07-26T16:22:10;6;6;
47079;PMS5003;33067;49.296;14.470;2022-07-26T16:24:36;6;6;
47079;PMS5003;33067;49.296;14.470;2022-07-26T16:27:01;7;7;
47079;PMS5003;33067;49.296;14.470;2022-07-26T16:29:27;7;7;
47079;PMS5003;33067;49.296;14.470;2022-07-26T16:31:53;4;4;
47079;PMS5003;33067;49.296;14.470;2022-07-26T16:34:18;6;6;
47079;PMS5003;33067;49.296;14.470;2022-07-26T16:36:44;9;7;
47079;PMS5003;33067;49.296;14.470;2022-07-26T16:39:09;5;5;
47079;PMS5003;33067;49.296;14.470;2022-07-26T16:41:35;5;5;
47079;PMS5003;33067;49.296;14.470;2022-07-26T16:44:01;5;5;
47079;PMS5003;33067;49.296;14.470;2022-07-26T16:46:26;6;6;
47079;PMS5003;33067;49.296;14.470;2022-07-26T16:48:52;5;5;
47079;PMS5003;33067;49.296;14.470;2022-07-26T16:51:18;5;5;
47079;PMS5003;33067;49.296;14.470;2022-07-26T16:53:43;5;5;